Time;durP1;ratioP1;P1;durP2;ratioP2;P2;SDS_P1;SDS_P2;PMS_P1;PMS_P2;Temp;Humidity;BMP_temperature;BMP_pressure;BME280_temperature;BME280_humidity;BME280_pressure;Samples;Min_cycle;Max_cycle;Signal;HPM_P1;HPM_P2
2021/03/04 00:00:32;;;;;;;2.03;1.08;;;;;;;2.59;68.36;98456.72;5004927;28;20092;-54
2021/03/04 00:02:58;;;;;;;2.97;1.20;;;;;;;3.06;68.22;98513.38;5005165;28;20057;-53
2021/03/04 00:05:24;;;;;;;2.20;1.10;;;;;;;3.00;68.33;98508.31;5004862;28;20026;-54
2021/03/04 00:07:50;;;;;;;6.68;1.88;;;;;;;2.93;69.03;98500.69;5004908;28;20030;-54
2021/03/04 00:10:18;;;;;;;6.28;1.30;;;;;;;3.03;68.59;98503.19;5004555;28;20037;-54
2021/03/04 00:12:44;;;;;;;3.83;1.50;;;;;;;3.11;68.84;98491.16;5004807;28;20105;-54
2021/03/04 00:15:12;;;;;;;2.80;1.40;;;;;;;2.61;69.03;98415.81;5004557;28;20026;-54
2021/03/04 00:17:37;;;;;;;3.30;1.30;;;;;;;3.10;69.22;98471.56;5006078;28;20026;-54
2021/03/04 00:20:09;;;;;;;4.43;1.70;;;;;;;2.57;69.46;98397.97;5008423;28;20037;-54
2021/03/04 00:22:35;;;;;;;5.35;1.80;;;;;;;3.13;68.56;98468.13;5004443;28;20080;-54
2021/03/04 00:25:05;;;;;;;4.43;1.20;;;;;;;3.12;69.09;98464.69;5004274;28;20038;-54
2021/03/04 00:27:31;;;;;;;4.32;1.50;;;;;;;3.25;68.69;98462.84;5004314;28;20332;-54
2021/03/04 00:29:57;;;;;;;4.18;1.45;;;;;;;3.10;69.61;98461.31;5004218;28;20033;-54
2021/03/04 00:32:23;;;;;;;3.25;1.17;;;;;;;3.10;68.90;98453.66;5009787;28;20057;-54
2021/03/04 00:34:49;;;;;;;1.50;1.15;;;;;;;2.99;70.00;98442.69;5004274;28;20065;-54
2021/03/04 00:37:15;;;;;;;1.50;1.13;;;;;;;3.05;69.58;98442.63;5004416;28;20054;-54
2021/03/04 00:39:40;;;;;;;5.28;1.70;;;;;;;3.08;70.04;98438.31;5004203;28;20030;-54
2021/03/04 00:42:07;;;;;;;2.60;1.27;;;;;;;3.18;69.62;98423.72;5004108;28;20037;-54
2021/03/04 00:44:32;;;;;;;2.13;1.20;;;;;;;3.15;70.06;98436.56;4995906;28;20019;-54
2021/03/04 00:46:58;;;;;;;3.58;1.55;;;;;;;3.17;69.84;98424.56;5004097;28;20350;-54
2021/03/04 00:49:24;;;;;;;3.13;1.30;;;;;;;3.24;69.89;98418.53;5004019;28;20030;-54
2021/03/04 00:51:49;;;;;;;2.60;1.40;;;;;;;3.36;69.35;98416.66;5003873;28;20093;-54
2021/03/04 00:54:15;;;;;;;2.05;1.15;;;;;;;3.14;70.52;98416.94;5003837;28;20351;-54
2021/03/04 00:56:41;;;;;;;3.10;1.30;;;;;;;3.21;70.11;98402.38;5003924;28;20026;-54
2021/03/04 00:59:06;;;;;;;3.20;1.27;;;;;;;3.32;69.52;98402.22;5003707;28;20039;-53
2021/03/04 01:01:32;;;;;;;1.90;1.23;;;;;;;3.32;70.25;98403.09;4995989;28;20126;-54
2021/03/04 01:03:57;;;;;;;2.80;1.15;;;;;;;3.24;70.28;98390.38;5003684;28;20027;-54
2021/03/04 01:06:23;;;;;;;3.83;1.40;;;;;;;3.23;70.93;98387.84;5003615;28;20270;-55
2021/03/04 01:08:49;;;;;;;2.28;1.30;;;;;;;3.32;70.34;98389.44;5006955;28;20086;-54
2021/03/04 01:11:15;;;;;;;3.75;1.35;;;;;;;3.33;70.33;98379.16;5003416;28;20061;-53
2021/03/04 01:13:45;;;;;;;2.67;1.30;;;;;;;2.94;70.54;98318.28;5003777;28;20036;-54
2021/03/04 01:16:10;;;;;;;3.47;1.38;;;;;;;3.23;71.13;98377.59;5003522;28;20030;-54
2021/03/04 01:18:36;;;;;;;3.53;1.13;;;;;;;3.35;70.96;98379.16;5003559;28;20037;-55
2021/03/04 01:21:04;;;;;;;3.30;1.23;;;;;;;2.81;70.72;98296.31;5003642;28;20026;-54
2021/03/04 01:23:29;;;;;;;4.90;1.73;;;;;;;3.19;70.54;98369.16;5003811;28;20074;-54
2021/03/04 01:25:55;;;;;;;3.03;1.33;;;;;;;3.29;70.40;98364.72;5003635;28;20122;-54
2021/03/04 01:28:21;;;;;;;2.35;1.40;;;;;;;3.34;70.46;98352.72;5003305;28;20101;-54
2021/03/04 01:30:47;;;;;;;4.32;1.13;;;;;;;3.36;70.17;98355.25;5003331;28;20026;-53
2021/03/04 01:33:12;;;;;;;3.95;1.52;;;;;;;3.25;71.06;98346.03;5003266;28;20026;-54
2021/03/04 01:35:38;;;;;;;2.67;1.40;;;;;;;3.34;70.89;98354.44;5003193;28;20212;-55
2021/03/04 01:38:04;;;;;;;4.47;1.30;;;;;;;3.22;70.87;98328.16;5003306;28;20038;-54
2021/03/04 01:40:30;;;;;;;4.32;1.33;;;;;;;3.33;70.59;98340.78;5003109;28;20026;-53
2021/03/04 01:42:56;;;;;;;4.22;1.55;;;;;;;3.36;69.94;98340.75;5003297;28;20065;-54
2021/03/04 01:45:21;;;;;;;3.22;1.45;;;;;;;3.34;70.58;98342.50;5003051;28;20026;-54
2021/03/04 01:47:53;;;;;;;1.38;0.93;;;;;;;3.18;70.87;98331.63;5003374;28;20045;-54
2021/03/04 01:50:21;;;;;;;2.38;1.10;;;;;;;3.19;70.75;98287.28;5003016;28;20290;-54
2021/03/04 01:52:47;;;;;;;4.28;1.20;;;;;;;3.22;71.00;98312.81;5003087;28;20045;-55
2021/03/04 01:55:16;;;;;;;4.00;1.10;;;;;;;3.36;70.30;98325.41;5003127;28;20307;-55
2021/03/04 01:57:44;;;;;;;1.83;1.33;;;;;;;3.18;71.24;98312.88;5006021;28;20061;-55
2021/03/04 02:00:11;;;;;;;2.60;1.23;;;;;;;3.22;70.90;98320.50;4989906;28;20038;-54
2021/03/04 02:02:37;;;;;;;3.03;1.20;;;;;;;3.11;71.01;98309.56;5007147;28;20307;-55
2021/03/04 02:05:07;;;;;;;2.20;1.05;;;;;;;2.82;72.29;98257.13;4989503;28;20338;-55
2021/03/04 02:08:10;;;;;;;5.38;1.48;;;;;;;3.22;73.24;98320.50;5006569;28;20038;-54
2021/03/04 02:10:42;;;;;;;3.63;1.45;;;;;;;2.95;74.68;98311.50;5002621;28;20034;-54
2021/03/04 02:13:20;;;;;;;2.72;1.30;;;;;;;2.94;75.28;98336.19;5006911;28;20034;-54
2021/03/04 02:15:49;;;;;;;2.97;1.30;;;;;;;2.79;76.22;98300.59;5006894;28;20080;-55
2021/03/04 02:18:17;;;;;;;4.07;1.45;;;;;;;2.66;77.15;98319.50;5006735;28;20034;-54
2021/03/04 02:21:10;;;;;;;3.80;1.23;;;;;;;2.89;77.71;98307.31;5006581;28;20093;-53
2021/03/04 02:23:51;;;;;;;2.88;1.10;;;;;;;2.87;77.89;98306.47;5006681;28;20037;-54
2021/03/04 02:26:39;;;;;;;1.95;1.30;;;;;;;2.58;77.33;98236.13;5006523;28;20030;-56
2021/03/04 02:29:07;;;;;;;3.67;1.27;;;;;;;2.50;77.78;98250.69;5006757;28;20188;-54
2021/03/04 02:31:36;;;;;;;2.22;1.23;;;;;;;2.84;78.94;98308.22;5001011;28;20062;-55
2021/03/04 02:34:03;;;;;;;2.35;1.55;;;;;;;2.83;78.82;98297.13;5006563;28;20093;-54
2021/03/04 02:36:33;;;;;;;11.57;5.72;;;;;;;2.62;79.65;98299.97;5006071;28;20087;-54
2021/03/04 02:39:03;;;;;;;4.47;1.50;;;;;;;2.79;79.38;98292.09;4988909;28;20030;-54
2021/03/04 02:41:32;;;;;;;2.83;1.63;;;;;;;2.45;80.49;98295.88;5006337;28;20235;-55
2021/03/04 02:44:01;;;;;;;2.58;1.23;;;;;;;2.56;80.82;98304.25;5006316;28;20055;-55
2021/03/04 02:46:31;;;;;;;2.90;1.35;;;;;;;2.45;80.62;98249.88;5006344;28;20223;-55
2021/03/04 02:48:57;;;;;;;2.70;1.23;;;;;;;2.40;81.66;98279.78;5006363;28;20030;-55
2021/03/04 02:51:24;;;;;;;3.55;1.50;;;;;;;2.60;81.56;98284.66;5005922;28;20042;-54
2021/03/04 02:53:53;;;;;;;1.70;1.40;;;;;;;2.64;81.55;98281.19;5006183;28;20033;-55
2021/03/04 02:56:19;;;;;;;3.22;1.20;;;;;;;2.35;82.18;98261.09;5006120;28;20030;-54
2021/03/04 02:58:46;;;;;;;4.10;1.38;;;;;;;2.40;82.72;98267.84;5006118;28;20084;-54
2021/03/04 03:01:13;;;;;;;2.47;1.30;;;;;;;2.03;82.95;98211.22;5004264;28;20026;-55
2021/03/04 03:03:40;;;;;;;5.45;1.58;;;;;;;2.39;83.23;98265.31;5005957;28;20030;-54
2021/03/04 03:06:06;;;;;;;3.20;1.40;;;;;;;2.29;83.56;98261.16;5006027;28;20101;-54
2021/03/04 03:08:32;;;;;;;3.90;1.58;;;;;;;2.37;83.82;98267.03;4988394;28;20027;-54
2021/03/04 03:10:58;;;;;;;2.80;1.83;;;;;;;2.55;83.00;98264.25;4988395;28;20315;-53
2021/03/04 03:13:26;;;;;;;3.95;1.40;;;;;;;2.48;82.85;98260.09;5005883;28;20042;-53
2021/03/04 03:15:52;;;;;;;2.55;1.50;;;;;;;2.43;82.67;98254.19;5005868;28;20026;-54
2021/03/04 03:18:17;;;;;;;4.03;1.30;;;;;;;2.50;82.41;98250.69;5005546;28;20034;-54
2021/03/04 03:20:43;;;;;;;2.83;1.30;;;;;;;2.47;82.91;98253.28;5005241;28;20211;-54
2021/03/04 03:23:09;;;;;;;4.60;1.58;;;;;;;2.58;82.74;98251.44;5005343;28;20034;-54
2021/03/04 03:25:34;;;;;;;4.45;2.10;;;;;;;2.67;82.12;98249.66;5005404;28;20223;-54
2021/03/04 03:28:00;;;;;;;4.45;1.67;;;;;;;2.58;82.31;98250.63;5005673;28;20090;-54
2021/03/04 03:30:28;;;;;;;4.32;1.65;;;;;;;2.59;82.84;98262.50;5004913;28;20300;-54
2021/03/04 03:33:07;;;;;;;4.18;1.60;;;;;;;2.44;82.98;98222.66;5005311;28;20030;-54
2021/03/04 03:35:33;;;;;;;5.30;1.60;;;;;;;2.41;83.60;98235.50;5005375;28;20052;-53
2021/03/04 03:38:01;;;;;;;3.28;1.50;;;;;;;2.53;82.83;98227.66;5002641;28;20039;-53
2021/03/04 03:40:29;;;;;;;2.67;1.80;;;;;;;2.55;82.81;98219.97;5005095;28;20065;-53
2021/03/04 03:42:57;;;;;;;7.25;1.88;;;;;;;2.27;82.56;98161.56;5004961;28;20188;-54
2021/03/04 03:45:26;;;;;;;1.95;1.60;;;;;;;2.22;82.24;98151.44;5004996;28;20030;-55
2021/03/04 03:47:53;;;;;;;4.22;1.55;;;;;;;2.72;82.11;98206.97;5005134;28;20065;-55
2021/03/04 03:50:20;;;;;;;4.32;1.80;;;;;;;2.66;82.39;98196.84;5004835;28;20077;-56
2021/03/04 03:52:47;;;;;;;3.90;1.70;;;;;;;2.62;82.62;98207.97;5004431;28;20033;-56
2021/03/04 03:55:13;;;;;;;5.30;1.75;;;;;;;2.63;82.61;98212.22;4994398;28;20078;-56
2021/03/04 03:57:41;;;;;;;6.38;1.80;;;;;;;2.44;82.52;98186.91;5004831;28;20042;-55
2021/03/04 04:00:08;;;;;;;2.28;1.65;;;;;;;2.60;82.59;98197.75;5002955;28;20030;-54
2021/03/04 04:02:35;;;;;;;5.00;1.63;;;;;;;2.55;82.83;98187.59;5004602;28;20307;-54
2021/03/04 04:05:01;;;;;;;4.90;1.65;;;;;;;2.68;82.43;98200.19;5004769;28;20053;-55
2021/03/04 04:07:29;;;;;;;4.25;1.70;;;;;;;2.52;82.98;98197.88;5004489;28;20077;-54
2021/03/04 04:09:56;;;;;;;3.97;2.00;;;;;;;2.55;83.36;98197.81;5004555;28;20034;-54
2021/03/04 04:12:22;;;;;;;6.53;1.80;;;;;;;2.63;82.55;98184.94;5004193;28;20026;-54
2021/03/04 04:14:47;;;;;;;6.40;2.00;;;;;;;2.66;82.52;98194.28;5004652;28;20447;-54
2021/03/04 04:17:13;;;;;;;5.18;1.83;;;;;;;2.70;81.88;98189.09;5004213;28;20081;-54
2021/03/04 04:19:39;;;;;;;2.00;1.40;;;;;;;2.68;81.83;98169.53;5003922;28;20041;-54
2021/03/04 04:22:05;;;;;;;3.42;1.95;;;;;;;2.61;82.39;98181.56;5004278;28;20090;-54
2021/03/04 04:24:32;;;;;;;4.22;1.80;;;;;;;2.71;82.49;98188.22;5003915;28;20042;-55
2021/03/04 04:26:57;;;;;;;4.55;1.88;;;;;;;2.33;82.04;98118.06;5004319;28;20026;-54
2021/03/04 04:29:24;;;;;;;4.78;1.67;;;;;;;2.57;81.98;98167.13;5003961;28;20038;-55
2021/03/04 04:31:49;;;;;;;2.88;1.70;;;;;;;2.54;82.58;98180.78;5001889;28;20030;-55
2021/03/04 04:34:15;;;;;;;3.67;2.00;;;;;;;2.63;82.14;98177.25;5002623;28;20283;-55
2021/03/04 04:36:40;;;;;;;10.55;2.55;;;;;;;2.66;81.64;98168.72;5004163;28;20050;-56
2021/03/04 04:39:06;;;;;;;4.35;1.88;;;;;;;2.62;81.54;98170.47;5003957;28;20315;-55
2021/03/04 04:41:32;;;;;;;3.15;1.65;;;;;;;2.55;81.65;98167.16;4995714;28;20378;-55
2021/03/04 04:43:57;;;;;;;5.20;1.88;;;;;;;2.69;82.03;98174.63;5003738;28;20150;-56
2021/03/04 04:46:23;;;;;;;3.67;1.77;;;;;;;2.74;81.46;98166.91;5003481;28;20026;-55
2021/03/04 04:48:49;;;;;;;6.07;2.15;;;;;;;2.75;81.53;98156.66;4986323;28;20097;-54
2021/03/04 04:51:14;;;;;;;6.07;1.98;;;;;;;2.68;81.15;98149.06;5003661;28;20032;-54
2021/03/04 04:53:41;;;;;;;3.08;2.03;;;;;;;2.76;81.50;98152.38;5003865;28;20046;-54
2021/03/04 04:56:07;;;;;;;3.55;1.60;;;;;;;2.75;81.68;98160.91;5003726;28;20058;-53
2021/03/04 04:58:33;;;;;;;4.32;1.73;;;;;;;2.80;81.60;98160.84;5003744;28;20030;-54
2021/03/04 05:00:59;;;;;;;2.63;1.67;;;;;;;2.71;81.90;98146.50;5001044;28;20049;-55
2021/03/04 05:03:25;;;;;;;3.72;1.65;;;;;;;2.67;82.03;98149.97;4996797;28;20049;-54
2021/03/04 05:05:50;;;;;;;5.28;1.73;;;;;;;2.69;81.79;98145.66;4993981;28;20030;-54
2021/03/04 05:08:16;;;;;;;4.97;1.73;;;;;;;2.80;81.67;98142.97;4993914;28;20041;-53
2021/03/04 05:10:42;;;;;;;3.13;2.10;;;;;;;2.76;81.84;98143.00;5003416;28;20026;-54
2021/03/04 05:13:08;;;;;;;5.75;1.88;;;;;;;2.69;81.64;98146.50;5002644;28;20026;-54
2021/03/04 05:15:33;;;;;;;4.97;1.80;;;;;;;2.61;82.04;98140.69;5003337;28;20033;-54
2021/03/04 05:17:59;;;;;;;2.97;1.83;;;;;;;2.74;81.68;98149.00;4997986;28;20090;-54
2021/03/04 05:20:25;;;;;;;4.50;1.90;;;;;;;2.55;81.96;98138.19;5003030;28;20023;-55
2021/03/04 05:22:50;;;;;;;3.15;2.20;;;;;;;2.66;82.23;98143.16;5003303;28;20472;-56
2021/03/04 05:25:16;;;;;;;4.65;2.08;;;;;;;2.76;81.59;98144.72;4997406;28;20077;-55
2021/03/04 05:27:42;;;;;;;2.15;1.58;;;;;;;2.61;81.97;98134.69;5001848;28;20038;-55
2021/03/04 05:30:08;;;;;;;6.88;1.55;;;;;;;2.61;81.61;98127.91;5001250;28;20041;-55
2021/03/04 05:32:34;;;;;;;2.78;1.52;;;;;;;2.70;81.79;98139.69;5005964;28;20038;-54
2021/03/04 05:35:00;;;;;;;2.65;1.70;;;;;;;2.76;81.36;98130.22;5001353;28;20327;-54
2021/03/04 05:37:27;;;;;;;3.28;2.08;;;;;;;2.66;81.60;98146.56;5001317;28;20323;-55
2021/03/04 05:39:52;;;;;;;2.67;1.80;;;;;;;2.61;81.81;98133.00;5001217;28;20061;-55
2021/03/04 05:42:18;;;;;;;5.28;2.00;;;;;;;2.75;81.45;98130.22;5002319;28;20034;-54
2021/03/04 05:44:44;;;;;;;4.00;1.90;;;;;;;2.65;80.94;98113.34;5002966;28;20034;-55
2021/03/04 05:47:10;;;;;;;2.78;1.90;;;;;;;2.50;81.41;98120.38;5003050;28;20030;-55
2021/03/04 05:49:55;;;;;;;6.82;2.20;;;;;;;2.60;80.91;98118.53;5003262;28;20026;-55
2021/03/04 05:52:22;;;;;;;4.53;2.42;;;;;;;2.63;81.40;98110.00;5002790;28;20053;-56
2021/03/04 05:54:51;;;;;;;3.88;2.10;;;;;;;2.66;80.81;98120.16;4985798;28;20022;-55
2021/03/04 05:57:18;;;;;;;4.10;1.75;;;;;;;2.83;80.73;98114.78;5002917;28;20034;-54
2021/03/04 05:59:44;;;;;;;2.90;1.70;;;;;;;2.64;80.56;98116.78;5003033;28;20041;-55
2021/03/04 06:02:10;;;;;;;2.83;1.55;;;;;;;2.61;81.08;98121.94;5002998;28;20022;-55
2021/03/04 06:04:36;;;;;;;3.67;1.65;;;;;;;2.66;80.53;98109.94;5002967;28;20060;-55
2021/03/04 06:07:01;;;;;;;3.83;2.05;;;;;;;2.77;81.06;98113.19;5002986;28;20286;-55
2021/03/04 06:09:28;;;;;;;5.07;1.98;;;;;;;2.69;81.28;98120.09;5002862;28;20038;-55
2021/03/04 06:12:01;;;;;;;5.63;2.28;;;;;;;2.56;81.46;98096.44;5002702;28;20022;-55
2021/03/04 06:14:26;;;;;;;5.50;2.20;;;;;;;2.85;80.74;98102.81;5002772;28;20038;-54
2021/03/04 06:16:52;;;;;;;3.45;1.95;;;;;;;2.83;80.75;98097.72;5002962;28;20121;-55
2021/03/04 06:19:19;;;;;;;5.47;2.30;;;;;;;2.78;80.81;98096.97;5002650;28;20050;-55
2021/03/04 06:21:45;;;;;;;3.72;2.22;;;;;;;2.68;81.58;98103.06;5002929;28;20319;-55
2021/03/04 06:24:14;;;;;;;3.30;2.78;;;;;;;2.50;81.58;98056.50;4998939;28;20033;-54
2021/03/04 06:26:40;;;;;;;4.28;2.08;;;;;;;2.78;81.32;98102.09;5001897;28;20038;-55
2021/03/04 06:29:20;;;;;;;5.85;2.22;;;;;;;2.54;81.04;98040.25;5002661;28;20266;-54
2021/03/04 06:31:57;;;;;;;4.95;2.13;;;;;;;2.80;81.56;98100.34;4996560;28;20100;-54
2021/03/04 06:34:23;;;;;;;4.40;2.67;;;;;;;2.97;80.98;98094.13;4996377;28;20354;-54
2021/03/04 06:36:58;;;;;;;5.30;2.30;;;;;;;2.49;81.05;98034.38;4979087;28;20057;-55
2021/03/04 06:39:24;;;;;;;3.05;2.03;;;;;;;2.96;81.17;98097.53;4984738;28;20044;-55
2021/03/04 06:42:03;;;;;;;8.52;2.55;;;;;;;2.81;81.87;98084.16;5002346;28;20389;-54
2021/03/04 06:44:42;;;;;;;4.50;2.30;;;;;;;2.26;81.55;98021.97;5006200;28;20213;-55
2021/03/04 06:47:09;;;;;;;5.63;2.53;;;;;;;2.87;82.58;98089.16;5006111;28;20034;-55
2021/03/04 06:49:40;;;;;;;4.40;2.33;;;;;;;2.77;81.96;98082.50;5006101;28;20050;-54
2021/03/04 06:52:06;;;;;;;4.72;2.45;;;;;;;2.98;81.93;98116.25;5006138;28;20378;-55
2021/03/04 06:54:32;;;;;;;4.90;2.30;;;;;;;2.81;82.02;98073.06;4998040;28;20042;-55
2021/03/04 06:57:11;;;;;;;4.65;3.05;;;;;;;2.59;81.36;98028.28;5005906;28;20347;-54
2021/03/04 06:59:44;;;;;;;3.65;2.58;;;;;;;2.76;82.00;98097.00;5005955;28;20042;-55
2021/03/04 07:02:22;;;;;;;4.53;2.33;;;;;;;2.80;82.55;98092.66;5005754;28;20030;-55
2021/03/04 07:05:02;;;;;;;4.72;2.53;;;;;;;2.81;81.56;98103.72;5005520;28;20053;-54
2021/03/04 07:07:29;;;;;;;2.38;2.13;;;;;;;2.81;81.87;98096.06;5005809;28;20101;-55
2021/03/04 07:09:59;;;;;;;6.63;2.38;;;;;;;2.54;81.45;98032.59;4988330;28;20030;-57
2021/03/04 07:12:25;;;;;;;4.88;2.50;;;;;;;2.88;81.73;98095.97;5005545;28;20098;-55
2021/03/04 07:14:53;;;;;;;4.72;2.88;;;;;;;2.70;80.66;98030.63;4988265;28;20029;-55
2021/03/04 07:17:25;;;;;;;4.85;2.53;;;;;;;2.68;80.75;98032.38;5005450;28;20041;-55
2021/03/04 07:19:54;;;;;;;;;;;;;;;3.10;80.58;98086.19;4988520;28;20026;-54
2021/03/04 07:22:20;;;;;;;5.15;2.35;;;;;;;3.10;80.74;98086.19;5005464;28;20202;-55
2021/03/04 07:24:46;;;;;;;4.80;2.40;;;;;;;3.20;80.13;98091.16;5005281;28;20334;-56
2021/03/04 07:27:14;;;;;;;3.75;2.58;;;;;;;3.13;79.90;98080.19;5005520;28;20327;-55
2021/03/04 07:29:41;;;;;;;3.60;2.40;;;;;;;3.22;80.06;98091.97;5005330;28;20022;-55
2021/03/04 07:32:08;;;;;;;5.47;3.53;;;;;;;3.15;80.14;98082.72;4987927;28;20030;-55
2021/03/04 07:34:35;;;;;;;4.60;2.58;;;;;;;3.25;79.49;98097.03;4997252;28;20310;-55
2021/03/04 07:37:02;;;;;;;5.55;2.42;;;;;;;3.15;79.79;98082.72;5005333;28;20057;-54
2021/03/04 07:39:32;;;;;;;5.45;2.38;;;;;;;3.07;80.73;98081.13;5004736;28;20046;-55
2021/03/04 07:41:58;;;;;;;3.95;2.70;;;;;;;3.04;81.01;98090.59;5005244;28;20204;-54
2021/03/04 07:44:29;;;;;;;3.10;2.38;;;;;;;3.27;79.33;98085.91;5004011;28;20062;-55
2021/03/04 07:46:59;;;;;;;4.40;2.50;;;;;;;3.01;80.60;98062.53;5003763;28;20030;-55
2021/03/04 07:49:35;;;;;;;5.35;2.72;;;;;;;3.02;80.99;98089.75;5004722;28;20029;-55
2021/03/04 07:52:17;;;;;;;4.40;2.63;;;;;;;2.95;79.84;98040.47;5004637;28;20034;-55
2021/03/04 07:54:47;;;;;;;4.45;2.80;;;;;;;3.13;79.94;98075.06;5003325;28;20129;-55
2021/03/04 07:57:15;;;;;;;5.53;2.70;;;;;;;3.13;79.90;98062.28;4986851;28;20050;-56
2021/03/04 08:00:02;;;;;;;6.80;3.53;;;;;;;3.28;80.37;98081.66;5004475;28;20042;-55
2021/03/04 08:02:29;;;;;;;6.25;2.90;;;;;;;3.27;78.95;98077.38;5004734;28;20084;-55
2021/03/04 08:05:14;;;;;;;4.57;2.83;;;;;;;3.07;79.22;98026.59;5004600;28;20072;-54
2021/03/04 08:07:42;;;;;;;4.55;2.65;;;;;;;3.15;79.87;98087.81;5001182;28;20022;-55
2021/03/04 08:10:10;;;;;;;6.07;3.08;;;;;;;3.05;78.44;98011.28;5004016;28;20030;-55
2021/03/04 08:12:54;;;;;;;4.85;2.67;;;;;;;3.40;78.04;98070.34;5004678;28;20044;-55
2021/03/04 08:15:29;;;;;;;6.68;2.95;;;;;;;3.37;79.15;98093.41;5003630;28;20218;-55
2021/03/04 08:17:55;;;;;;;4.63;2.78;;;;;;;3.37;78.52;98075.50;5004066;28;20034;-55
2021/03/04 08:20:21;;;;;;;5.55;2.80;;;;;;;3.34;78.30;98063.63;5003380;28;20149;-54
2021/03/04 08:22:49;;;;;;;3.67;2.47;;;;;;;3.42;77.79;98066.00;5004252;28;20038;-55
2021/03/04 08:25:29;;;;;;;3.90;2.50;;;;;;;3.76;76.61;98062.78;5003932;28;20094;-55
2021/03/04 08:27:55;;;;;;;4.07;2.70;;;;;;;3.75;76.88;98059.41;5003590;28;20085;-55
2021/03/04 08:30:37;;;;;;;4.00;2.40;;;;;;;3.66;76.25;98002.44;5003901;28;20033;-55
2021/03/04 08:33:07;;;;;;;;;;;;;;;4.00;75.61;98053.75;4987199;28;20084;-55
2021/03/04 08:35:35;;;;;;;3.70;2.28;;;;;;;3.97;74.95;98041.03;5004180;28;19914;-54
2021/03/04 08:38:07;;;;;;;7.18;2.70;;;;;;;3.68;74.56;97990.44;5003976;28;20104;-55
2021/03/04 08:40:45;;;;;;;3.92;2.33;;;;;;;3.74;74.16;97990.31;4996284;28;20046;-55
2021/03/04 08:43:16;;;;;;;3.65;2.60;;;;;;;3.77;75.35;98038.88;5003889;28;20049;-55
2021/03/04 08:45:43;;;;;;;9.02;3.20;;;;;;;3.95;74.40;98056.44;4997464;28;20041;-55
2021/03/04 08:48:11;;;;;;;4.93;2.65;;;;;;;3.89;74.94;98056.56;4994836;28;20097;-55
2021/03/04 08:50:42;;;;;;;5.15;2.53;;;;;;;3.67;74.67;97993.88;4991653;28;20113;-55
2021/03/04 08:53:14;;;;;;;5.22;2.85;;;;;;;4.00;74.82;98068.28;4995213;28;20374;-55
2021/03/04 08:55:49;;;;;;;;;;;;;;;3.95;75.11;98060.72;4999678;28;20037;-55
2021/03/04 08:58:30;;;;;;;4.13;2.85;;;;;;;4.22;73.77;98066.97;4993508;28;19914;-55
2021/03/04 09:01:04;;;;;;;5.05;2.80;;;;;;;3.74;74.55;97998.00;5003614;28;20319;-54
2021/03/04 09:03:35;;;;;;;4.03;2.70;;;;;;;4.31;73.63;98065.91;5003563;28;20044;-55
2021/03/04 09:06:07;;;;;;;3.10;2.28;;;;;;;4.29;73.70;98058.25;5003291;28;20126;-55
2021/03/04 09:09:03;;;;;;;4.03;2.42;;;;;;;3.83;73.06;97989.28;5003472;28;20038;-55
2021/03/04 09:11:28;;;;;;;3.45;2.38;;;;;;;4.36;73.06;98050.41;5001162;28;20041;-55
2021/03/04 09:14:07;;;;;;;4.20;2.30;;;;;;;4.43;72.99;98060.50;5003525;28;20069;-55
2021/03/04 09:16:51;;;;;;;2.58;1.85;;;;;;;4.34;73.00;98075.25;4978575;28;20022;-56
2021/03/04 09:19:23;;;;;;;4.28;1.88;;;;;;;3.98;75.01;98055.53;5003387;28;20061;-55
2021/03/04 09:21:50;;;;;;;3.55;2.00;;;;;;;4.12;74.56;98068.88;5003433;28;20053;-55
2021/03/04 09:24:16;;;;;;;3.95;2.10;;;;;;;4.17;74.38;98091.00;5003258;28;20331;-55
2021/03/04 09:26:42;;;;;;;5.05;2.20;;;;;;;4.05;75.39;98084.41;5003341;28;20026;-55
2021/03/04 09:29:08;;;;;;;6.55;2.22;;;;;;;4.05;75.43;98098.06;4985745;28;20022;-55
2021/03/04 09:31:33;;;;;;;1.98;1.05;;;;;;;3.86;74.66;98100.13;5003300;28;20061;-55
2021/03/04 09:34:02;;;;;;;2.75;1.20;;;;;;;3.22;75.51;98036.56;5003526;28;20034;-54
2021/03/04 09:36:28;;;;;;;1.63;1.40;;;;;;;3.68;76.13;98106.47;5003319;28;20047;-55
2021/03/04 09:38:55;;;;;;;1.92;1.25;;;;;;;3.70;76.20;98117.53;5003372;28;20235;-55
2021/03/04 09:41:23;;;;;;;1.02;0.93;;;;;;;3.43;76.30;98119.75;5002453;28;20038;-54
2021/03/04 09:43:51;;;;;;;1.10;0.98;;;;;;;3.28;76.12;98128.53;5001994;28;20056;-55
2021/03/04 09:46:31;;;;;;;1.77;1.00;;;;;;;3.32;76.26;98113.13;5002859;28;20346;-55
2021/03/04 09:49:15;;;;;;;2.38;0.93;;;;;;;3.50;76.27;98119.63;4998267;28;20030;-54
2021/03/04 09:51:42;;;;;;;1.40;0.98;;;;;;;3.30;73.94;98109.75;5002923;28;20226;-55
2021/03/04 09:54:09;;;;;;;1.15;1.05;;;;;;;3.52;74.51;98123.00;5002830;28;20038;-54
2021/03/04 09:56:35;;;;;;;3.35;1.20;;;;;;;3.69;73.74;98115.84;5002749;28;20034;-54
2021/03/04 09:59:01;;;;;;;1.50;1.13;;;;;;;3.78;73.24;98109.72;5003324;28;20065;-54
2021/03/04 10:01:34;;;;;;;2.08;1.40;;;;;;;3.81;71.71;98107.09;4997536;28;20041;-55
2021/03/04 10:04:05;;;;;;;2.58;1.20;;;;;;;3.88;71.10;98111.22;4995371;28;20031;-54
2021/03/04 10:06:36;;;;;;;1.75;1.20;;;;;;;3.90;71.30;98113.72;5002699;28;20030;-55
2021/03/04 10:09:04;;;;;;;2.58;1.10;;;;;;;3.40;70.56;98058.38;4998765;28;20039;-54
2021/03/04 10:11:32;;;;;;;0.95;0.93;;;;;;;3.84;69.67;98107.03;4993191;28;20110;-55
2021/03/04 10:14:13;;;;;;;1.05;0.90;;;;;;;3.82;68.92;98100.25;4997618;28;20036;-54
2021/03/04 10:16:42;;;;;;;2.08;1.35;;;;;;;3.84;69.24;98101.91;5002923;28;20058;-55
2021/03/04 10:19:09;;;;;;;1.25;1.15;;;;;;;3.76;68.84;98108.88;5001687;28;20094;-55
2021/03/04 10:21:35;;;;;;;5.32;1.60;;;;;;;3.92;69.26;98111.97;5006637;28;20301;-55
2021/03/04 10:24:01;;;;;;;1.58;1.48;;;;;;;3.77;69.74;98113.13;5002963;28;20026;-55
2021/03/04 10:26:27;;;;;;;2.03;1.30;;;;;;;3.38;70.70;98100.22;5002235;28;20057;-55
2021/03/04 10:28:53;;;;;;;2.65;1.55;;;;;;;3.59;69.61;98116.88;4986505;28;20311;-54
2021/03/04 10:31:19;;;;;;;1.50;1.30;;;;;;;3.43;70.74;98109.50;5001492;28;20037;-55
2021/03/04 10:33:45;;;;;;;2.42;1.20;;;;;;;3.37;71.75;98104.47;4988535;28;20031;-54
2021/03/04 10:36:11;;;;;;;1.85;1.20;;;;;;;3.53;70.13;98112.72;5002076;28;20077;-55
2021/03/04 10:38:37;;;;;;;1.40;1.27;;;;;;;3.60;70.35;98110.91;5005895;28;20037;-55
2021/03/04 10:41:03;;;;;;;2.10;1.63;;;;;;;3.62;70.50;98112.56;5005755;28;20030;-55
2021/03/04 10:43:29;;;;;;;2.97;1.30;;;;;;;3.55;70.26;98100.75;4988076;28;20034;-55
2021/03/04 10:45:55;;;;;;;2.42;1.20;;;;;;;3.67;70.48;98115.03;5005988;28;20031;-55
2021/03/04 10:48:21;;;;;;;2.92;1.50;;;;;;;3.75;70.08;98104.66;4999646;28;20027;-55
2021/03/04 10:50:47;;;;;;;1.40;1.30;;;;;;;3.57;69.92;98122.03;4999654;28;20037;-55
2021/03/04 10:53:13;;;;;;;5.47;1.92;;;;;;;3.63;70.74;98126.19;5004306;28;20018;-54
2021/03/04 10:55:40;;;;;;;3.08;1.50;;;;;;;3.57;70.60;98104.13;5005801;28;20395;-55
2021/03/04 10:58:06;;;;;;;3.50;1.20;;;;;;;3.56;69.97;98119.50;5005729;28;20073;-55
2021/03/04 11:00:31;;;;;;;2.60;1.30;;;;;;;3.50;70.50;98125.56;4997503;28;20030;-55
2021/03/04 11:02:57;;;;;;;1.60;1.10;;;;;;;3.52;71.68;98121.28;5005805;28;20053;-55
2021/03/04 11:05:23;;;;;;;1.80;1.35;;;;;;;3.57;71.09;98134.00;4999702;28;20100;-55
2021/03/04 11:07:48;;;;;;;3.47;1.80;;;;;;;3.53;71.53;98124.69;5005786;28;20086;-55
2021/03/04 11:10:14;;;;;;;3.75;1.90;;;;;;;3.49;71.61;98135.84;5005454;28;20239;-54
2021/03/04 11:12:40;;;;;;;2.55;1.80;;;;;;;3.47;71.68;98128.19;5003673;28;20070;-55
2021/03/04 11:15:07;;;;;;;2.85;1.65;;;;;;;3.46;70.53;98129.06;5005295;28;20034;-56
2021/03/04 11:17:33;;;;;;;5.32;1.55;;;;;;;3.24;70.10;98120.94;5004790;28;20090;-55
2021/03/04 11:19:59;;;;;;;2.88;1.45;;;;;;;3.31;71.11;98129.31;5004392;28;20026;-54
2021/03/04 11:22:24;;;;;;;1.85;1.33;;;;;;;3.43;68.51;98124.00;5004261;28;20418;-55
2021/03/04 11:24:50;;;;;;;2.28;1.45;;;;;;;3.62;67.78;98125.38;5004332;28;20051;-55
2021/03/04 11:27:16;;;;;;;1.95;1.38;;;;;;;3.62;66.76;98122.81;5004933;28;20222;-55
2021/03/04 11:29:43;;;;;;;1.88;1.20;;;;;;;3.16;66.22;98126.16;5004830;28;20035;-54
2021/03/04 11:32:09;;;;;;;4.40;1.58;;;;;;;3.58;65.97;98122.91;5004901;28;20030;-56
2021/03/04 11:34:35;;;;;;;3.17;1.35;;;;;;;3.81;66.36;98117.31;5005146;28;20077;-55
2021/03/04 11:37:01;;;;;;;2.05;1.48;;;;;;;3.75;64.61;98125.13;5004805;28;20060;-54
2021/03/04 11:39:26;;;;;;;2.05;1.52;;;;;;;3.77;64.76;98133.63;5005116;28;20352;-55
2021/03/04 11:41:52;;;;;;;1.70;1.40;;;;;;;3.95;64.89;98122.19;5005206;28;20062;-55
2021/03/04 11:44:18;;;;;;;4.00;1.85;;;;;;;3.52;65.68;98107.63;5005029;28;20030;-56
2021/03/04 11:46:44;;;;;;;1.70;1.48;;;;;;;3.79;64.26;98126.75;5004052;28;20282;-55